Time;durP1;ratioP1;P1;durP2;ratioP2;P2;SDS_P1;SDS_P2;PMS_P1;PMS_P2;Temp;Humidity;BMP_temperature;BMP_pressure;BME280_temperature;BME280_humidity;BME280_pressure;Samples;Min_cycle;Max_cycle;Signal;HPM_P1;HPM_P2
2024/03/29 00:00:46;;;;;;;0.30;0.20;;;11.90;99.90;;;;;;5087753;28;20164;-73
2024/03/29 00:03:11;;;;;;;0.30;0.20;;;11.80;99.90;;;;;;5087279;28;20204;-73
2024/03/29 00:05:38;;;;;;;0.30;0.20;;;11.70;99.90;;;;;;5086713;28;20446;-73
2024/03/29 00:08:04;;;;;;;3.50;1.95;;;11.60;99.90;;;;;;5086127;28;20361;-72
2024/03/29 00:10:29;;;;;;;0.30;0.20;;;11.60;99.90;;;;;;5086072;28;20241;-73
2024/03/29 00:12:55;;;;;;;0.30;0.20;;;11.50;99.90;;;;;;5087265;28;20188;-73
2024/03/29 00:15:21;;;;;;;0.30;0.20;;;11.50;99.90;;;;;;5087356;28;20219;-73
2024/03/29 00:17:46;;;;;;;0.87;0.87;;;11.50;99.90;;;;;;5085834;28;20188;-73
2024/03/29 00:20:12;;;;;;;0.30;0.30;;;11.50;99.90;;;;;;5085967;28;20607;-73
2024/03/29 00:22:38;;;;;;;0.30;0.20;;;11.50;99.90;;;;;;5085423;28;20196;-74
2024/03/29 00:25:04;;;;;;;0.30;0.20;;;11.50;99.90;;;;;;5087570;28;20255;-72
2024/03/29 00:27:30;;;;;;;0.30;0.20;;;11.50;99.90;;;;;;5085700;28;20382;-74
2024/03/29 00:29:56;;;;;;;0.30;0.20;;;11.50;99.90;;;;;;5087358;28;20487;-73
2024/03/29 00:32:22;;;;;;;0.30;0.20;;;11.50;99.90;;;;;;5086787;28;20326;-71
2024/03/29 00:34:50;;;;;;;0.30;0.20;;;11.50;99.90;;;;;;5086923;28;20207;-72
2024/03/29 00:37:16;;;;;;;0.30;0.20;;;11.50;99.90;;;;;;5086911;28;20405;-72
2024/03/29 00:39:42;;;;;;;0.30;0.20;;;11.50;99.90;;;;;;5086286;28;20253;-73
2024/03/29 00:42:15;;;;;;;0.30;0.20;;;11.50;99.90;;;;;;5086899;28;20176;-73
2024/03/29 00:44:41;;;;;;;0.30;0.30;;;11.50;99.90;;;;;;5086742;28;20634;-73
2024/03/29 00:47:07;;;;;;;0.30;0.20;;;11.50;99.90;;;;;;5087021;28;20173;-73
2024/03/29 00:49:33;;;;;;;0.30;0.20;;;11.50;99.90;;;;;;5086836;28;20185;-72
2024/03/29 00:51:59;;;;;;;0.30;0.20;;;11.60;99.90;;;;;;5086950;28;20791;-72
2024/03/29 00:54:25;;;;;;;0.30;0.20;;;11.60;99.90;;;;;;5086808;28;20230;-74
2024/03/29 00:56:51;;;;;;;0.30;0.20;;;11.60;99.90;;;;;;5085253;28;20231;-72
2024/03/29 00:59:17;;;;;;;0.30;0.20;;;11.60;99.90;;;;;;5085571;28;20261;-72
2024/03/29 01:01:43;;;;;;;0.30;0.20;;;11.60;99.90;;;;;;5086375;28;20450;-74
2024/03/29 01:04:09;;;;;;;0.30;0.20;;;11.60;99.90;;;;;;5085334;28;20207;-72
2024/03/29 01:06:35;;;;;;;0.30;0.20;;;11.60;99.90;;;;;;5086326;28;20165;-74
2024/03/29 01:09:01;;;;;;;0.30;0.20;;;11.60;99.90;;;;;;5085020;28;20228;-74
2024/03/29 01:11:27;;;;;;;0.30;0.20;;;11.50;99.90;;;;;;5084688;28;20421;-72
2024/03/29 01:13:53;;;;;;;0.30;0.20;;;11.30;99.90;;;;;;5084334;28;20600;-73
2024/03/29 01:16:19;;;;;;;0.30;0.20;;;11.20;99.90;;;;;;5085009;28;20537;-73
2024/03/29 01:18:45;;;;;;;0.30;0.20;;;11.10;99.90;;;;;;5086060;28;20469;-72
2024/03/29 01:21:12;;;;;;;0.30;0.20;;;11.10;99.90;;;;;;5086156;28;20173;-73
2024/03/29 01:23:39;;;;;;;0.30;0.20;;;11.10;99.90;;;;;;5084511;28;20197;-73
2024/03/29 01:26:05;;;;;;;0.30;0.20;;;11.00;99.90;;;;;;5086233;28;20188;-72
2024/03/29 01:28:31;;;;;;;0.30;0.20;;;10.90;99.90;;;;;;5085752;28;20192;-73
2024/03/29 01:30:58;;;;;;;0.30;0.20;;;10.80;99.90;;;;;;5086044;28;20177;-73
2024/03/29 01:33:24;;;;;;;0.30;0.20;;;10.70;99.90;;;;;;5084165;28;20184;-74
2024/03/29 01:35:50;;;;;;;0.30;0.20;;;10.70;99.90;;;;;;5085748;28;20619;-73
2024/03/29 01:38:16;;;;;;;0.30;0.23;;;10.70;99.90;;;;;;5084499;28;20200;-72
2024/03/29 01:40:41;;;;;;;0.30;0.20;;;10.80;99.90;;;;;;5083509;28;20176;-73
2024/03/29 01:43:08;;;;;;;0.30;0.20;;;10.70;99.90;;;;;;5085593;28;20434;-74
2024/03/29 01:45:38;;;;;;;0.30;0.20;;;10.80;99.90;;;;;;5085905;28;20181;-72
2024/03/29 01:48:06;;;;;;;0.30;0.20;;;10.80;99.90;;;;;;5085456;28;20246;-72
2024/03/29 01:50:32;;;;;;;0.30;0.20;;;10.90;99.90;;;;;;5085449;28;20184;-73
2024/03/29 01:52:59;;;;;;;0.30;0.20;;;10.90;99.90;;;;;;5084420;28;20200;-72
2024/03/29 01:55:25;;;;;;;0.30;0.20;;;11.00;99.90;;;;;;5084188;28;20244;-73
2024/03/29 01:57:51;;;;;;;0.30;0.20;;;11.00;99.90;;;;;;5085502;28;20277;-72
2024/03/29 02:00:17;;;;;;;0.30;0.20;;;11.00;99.90;;;;;;5085780;28;20580;-73
2024/03/29 02:02:43;;;;;;;0.30;0.20;;;11.10;99.90;;;;;;5084036;28;20520;-72
2024/03/29 02:05:09;;;;;;;0.30;0.20;;;11.00;99.90;;;;;;5085959;28;20256;-73
2024/03/29 02:07:36;;;;;;;0.30;0.20;;;11.00;99.90;;;;;;5085305;28;20428;-74
2024/03/29 02:10:02;;;;;;;0.30;0.20;;;10.90;99.90;;;;;;5085632;28;21235;-72
2024/03/29 02:12:28;;;;;;;0.30;0.20;;;10.90;99.90;;;;;;5085170;28;20188;-72
2024/03/29 02:14:54;;;;;;;0.30;0.20;;;10.90;99.90;;;;;;5085514;28;20730;-74
2024/03/29 02:17:19;;;;;;;0.30;0.20;;;10.90;99.90;;;;;;5085126;28;20225;-72
2024/03/29 02:19:45;;;;;;;0.30;0.20;;;10.90;99.90;;;;;;5084082;28;20195;-72
2024/03/29 02:22:15;;;;;;;0.30;0.20;;;10.90;99.90;;;;;;5086681;28;20793;-73
2024/03/29 02:24:40;;;;;;;0.30;0.20;;;10.90;99.90;;;;;;5089672;28;20315;-72
2024/03/29 02:27:06;;;;;;;0.30;0.20;;;10.90;99.90;;;;;;5089203;28;20160;-72
2024/03/29 02:29:32;;;;;;;0.30;0.20;;;10.90;99.90;;;;;;5089808;28;20176;-74
2024/03/29 02:31:57;;;;;;;0.30;0.20;;;10.90;99.90;;;;;;5087422;28;20168;-74
2024/03/29 02:34:23;;;;;;;0.30;0.20;;;10.90;99.90;;;;;;5089204;28;20231;-72
2024/03/29 02:36:49;;;;;;;0.30;0.20;;;11.00;99.90;;;;;;5089087;28;20257;-73
2024/03/29 02:39:14;;;;;;;0.30;0.20;;;11.00;99.90;;;;;;5089492;28;20609;-73
2024/03/29 02:41:40;;;;;;;0.30;0.20;;;11.00;99.90;;;;;;5088258;28;20221;-72
2024/03/29 02:44:06;;;;;;;0.30;0.20;;;11.00;99.90;;;;;;5087629;28;20202;-72
2024/03/29 02:46:31;;;;;;;0.30;0.20;;;11.00;99.90;;;;;;5087473;28;20173;-73
2024/03/29 02:48:57;;;;;;;0.30;0.20;;;11.10;99.90;;;;;;5089240;28;20219;-72
2024/03/29 02:51:23;;;;;;;0.30;0.20;;;11.10;99.90;;;;;;5087704;28;20215;-74
2024/03/29 02:53:48;;;;;;;0.30;0.20;;;11.10;99.90;;;;;;5087396;28;20200;-73
2024/03/29 02:56:18;;;;;;;0.30;0.20;;;11.10;99.90;;;;;;5088878;28;20297;-72
2024/03/29 02:58:44;;;;;;;0.30;0.20;;;11.10;99.90;;;;;;5088721;28;20605;-72
2024/03/29 03:01:10;;;;;;;0.30;0.20;;;11.00;99.90;;;;;;5089125;28;20184;-72
2024/03/29 03:03:36;;;;;;;0.30;0.20;;;10.90;99.90;;;;;;5087642;28;20224;-74
2024/03/29 03:06:02;;;;;;;0.30;0.20;;;10.90;99.90;;;;;;5087552;28;20420;-73
2024/03/29 03:11:13;;;;;;;0.30;0.20;;;10.80;99.90;;;;;;5088517;28;20598;-74
2024/03/29 03:13:39;;;;;;;0.30;0.20;;;10.70;99.90;;;;;;5088456;28;20342;-73
2024/03/29 03:16:05;;;;;;;0.30;0.20;;;10.60;99.90;;;;;;5088737;28;20212;-74
2024/03/29 03:18:31;;;;;;;0.30;0.20;;;10.50;99.90;;;;;;5087170;28;20196;-73
2024/03/29 03:20:57;;;;;;;0.30;0.20;;;10.40;99.90;;;;;;5088575;28;20175;-73
2024/03/29 03:23:24;;;;;;;0.30;0.20;;;10.40;99.90;;;;;;5086919;28;20421;-73
2024/03/29 03:25:57;;;;;;;0.30;0.20;;;10.30;99.90;;;;;;5088554;28;20172;-73
2024/03/29 03:28:23;;;;;;;0.30;0.20;;;10.30;99.90;;;;;;5088339;28;20188;-73
2024/03/29 03:30:50;;;;;;;0.30;0.20;;;10.20;99.90;;;;;;5087043;28;20267;-73
2024/03/29 03:33:15;;;;;;;0.30;0.30;;;10.10;99.90;;;;;;5087231;28;20432;-72
2024/03/29 03:35:42;;;;;;;0.30;0.20;;;10.10;99.90;;;;;;5086768;28;20258;-73
2024/03/29 03:38:08;;;;;;;0.30;0.20;;;10.10;99.90;;;;;;5087794;28;20241;-72
2024/03/29 03:40:34;;;;;;;0.30;0.20;;;10.00;99.90;;;;;;5086648;28;20268;-73
2024/03/29 03:43:00;;;;;;;0.30;0.20;;;10.00;99.90;;;;;;5087589;28;20207;-73
2024/03/29 03:45:26;;;;;;;0.30;0.20;;;10.00;99.90;;;;;;5087259;28;20753;-73
2024/03/29 03:47:51;;;;;;;0.30;0.20;;;10.00;99.90;;;;;;5087819;28;20242;-74
2024/03/29 03:50:17;;;;;;;0.30;0.20;;;9.90;99.90;;;;;;5088223;28;20181;-72
2024/03/29 03:52:43;;;;;;;0.30;0.20;;;9.90;99.90;;;;;;5087749;28;20734;-71
2024/03/29 03:55:08;;;;;;;0.30;0.20;;;9.90;99.90;;;;;;5086293;28;20248;-73
2024/03/29 03:57:34;;;;;;;0.30;0.20;;;9.90;99.90;;;;;;5086151;28;20192;-74
2024/03/29 04:00:00;;;;;;;0.30;0.20;;;9.90;99.90;;;;;;5087956;28;20184;-72
2024/03/29 04:02:26;;;;;;;0.30;0.20;;;9.80;99.90;;;;;;5086048;28;20556;-71
2024/03/29 04:04:52;;;;;;;0.30;0.30;;;9.70;99.90;;;;;;5087878;28;20180;-73
2024/03/29 04:07:18;;;;;;;0.30;0.20;;;9.70;99.90;;;;;;5087471;28;20172;-73
2024/03/29 04:09:43;;;;;;;0.30;0.20;;;9.70;99.90;;;;;;5086081;28;20184;-72
2024/03/29 04:12:09;;;;;;;0.30;0.20;;;9.70;99.90;;;;;;5085916;28;20187;-73
2024/03/29 04:14:35;;;;;;;0.30;0.20;;;9.60;99.90;;;;;;5087240;28;20508;-72
2024/03/29 04:17:00;;;;;;;0.30;0.20;;;9.60;99.90;;;;;;5085610;28;20165;-72
2024/03/29 04:19:26;;;;;;;0.30;0.20;;;9.60;99.90;;;;;;5087600;28;20204;-72
2024/03/29 04:21:52;;;;;;;0.30;0.20;;;9.50;99.90;;;;;;5086988;28;20172;-73
2024/03/29 04:24:18;;;;;;;0.30;0.30;;;9.50;99.90;;;;;;5087294;28;20268;-74
2024/03/29 04:26:44;;;;;;;0.30;0.20;;;9.40;99.90;;;;;;5086931;28;20587;-72
2024/03/29 04:29:10;;;;;;;0.30;0.20;;;9.40;99.90;;;;;;5087528;28;20574;-74
2024/03/29 04:31:36;;;;;;;0.30;0.20;;;9.30;99.90;;;;;;5087496;28;20263;-72
2024/03/29 04:34:01;;;;;;;0.40;0.40;;;9.30;99.90;;;;;;5087091;28;20192;-72
2024/03/29 04:36:27;;;;;;;0.30;0.20;;;9.30;99.90;;;;;;5086765;28;20635;-72
2024/03/29 04:38:53;;;;;;;0.30;0.20;;;9.30;99.90;;;;;;5086532;28;20544;-71
2024/03/29 04:41:19;;;;;;;0.30;0.20;;;9.30;99.90;;;;;;5086956;28;20442;-72
2024/03/29 04:43:45;;;;;;;0.30;0.20;;;9.40;99.90;;;;;;5086445;28;20205;-72
2024/03/29 04:46:11;;;;;;;0.50;0.50;;;9.40;99.90;;;;;;5083879;28;20233;-74
2024/03/29 04:48:38;;;;;;;0.30;0.20;;;9.30;99.90;;;;;;5085041;28;20193;-74
2024/03/29 04:51:04;;;;;;;0.30;0.20;;;9.30;99.90;;;;;;5086588;28;20168;-73
2024/03/29 04:53:30;;;;;;;0.30;0.20;;;9.30;99.90;;;;;;5086128;28;20204;-73
2024/03/29 04:55:57;;;;;;;0.30;0.20;;;9.30;99.90;;;;;;5086479;28;20321;-72
2024/03/29 04:58:23;;;;;;;0.30;0.20;;;9.30;99.90;;;;;;5086610;28;20573;-71
2024/03/29 05:00:49;;;;;;;0.30;0.20;;;9.30;99.90;;;;;;5085599;28;20225;-72
2024/03/29 05:03:18;;;;;;;0.30;0.20;;;9.40;99.90;;;;;;5085007;28;20197;-72
2024/03/29 05:05:44;;;;;;;0.30;0.20;;;9.50;99.90;;;;;;5086549;28;20179;-74
2024/03/29 05:08:10;;;;;;;0.30;0.20;;;9.50;99.90;;;;;;5085994;28;20196;-73
2024/03/29 05:10:35;;;;;;;0.30;0.20;;;9.40;99.90;;;;;;5085358;28;20180;-73
2024/03/29 05:13:01;;;;;;;0.30;0.20;;;9.40;99.90;;;;;;5086114;28;20223;-72
2024/03/29 05:15:27;;;;;;;0.30;0.20;;;9.40;99.90;;;;;;5084982;28;20310;-73
2024/03/29 05:17:55;;;;;;;0.30;0.20;;;9.40;99.90;;;;;;5085943;28;20855;-74
2024/03/29 05:20:21;;;;;;;0.30;0.20;;;9.50;99.90;;;;;;5086583;28;20181;-72
2024/03/29 05:22:46;;;;;;;0.30;0.20;;;9.60;99.90;;;;;;5086286;28;20537;-72
2024/03/29 05:25:12;;;;;;;0.30;0.20;;;9.60;99.90;;;;;;5086204;28;20574;-71
2024/03/29 05:27:38;;;;;;;0.30;0.20;;;9.70;99.90;;;;;;5085887;28;20435;-72
2024/03/29 05:30:04;;;;;;;0.30;0.20;;;9.70;99.90;;;;;;5084955;28;20185;-73
2024/03/29 05:32:30;;;;;;;0.30;0.20;;;9.80;99.90;;;;;;5084464;28;20677;-73
2024/03/29 05:34:56;;;;;;;0.30;0.20;;;9.90;99.90;;;;;;5084497;28;20842;-73
2024/03/29 05:37:25;;;;;;;0.30;0.20;;;9.90;99.90;;;;;;5085569;28;20248;-72
2024/03/29 05:39:59;;;;;;;0.30;0.20;;;10.00;99.90;;;;;;5086104;28;20409;-72
2024/03/29 05:42:27;;;;;;;0.30;0.20;;;10.10;99.90;;;;;;5085527;28;20212;-74
2024/03/29 05:44:53;;;;;;;0.30;0.20;;;10.20;99.90;;;;;;5084624;28;20662;-73
2024/03/29 05:47:20;;;;;;;0.30;0.20;;;10.30;99.90;;;;;;5085481;28;20172;-74
2024/03/29 05:49:46;;;;;;;0.30;0.20;;;10.40;99.90;;;;;;5085090;28;20172;-73
2024/03/29 05:52:14;;;;;;;0.30;0.20;;;10.50;99.90;;;;;;5085454;28;20173;-74
2024/03/29 05:54:44;;;;;;;0.30;0.20;;;10.50;99.90;;;;;;5085774;28;20973;-73
2024/03/29 05:57:10;;;;;;;0.30;0.20;;;10.60;99.90;;;;;;5083643;28;20594;-74
2024/03/29 05:59:36;;;;;;;0.30;0.20;;;10.70;99.90;;;;;;5083976;28;20650;-74
2024/03/29 06:02:02;;;;;;;0.30;0.20;;;10.80;99.90;;;;;;5083956;28;20183;-72
2024/03/29 06:04:33;;;;;;;0.30;0.20;;;10.80;99.90;;;;;;5083994;28;20224;-72
2024/03/29 06:07:00;;;;;;;0.30;0.20;;;10.90;99.90;;;;;;5085218;28;20235;-72
2024/03/29 06:09:25;;;;;;;0.30;0.20;;;10.90;99.90;;;;;;5084057;28;20245;-73
2024/03/29 06:11:53;;;;;;;0.30;0.20;;;10.90;99.90;;;;;;5083810;28;20568;-73
2024/03/29 06:19:47;;;;;;;0.30;0.20;;;11.20;99.90;;;;;;5085909;28;20379;-72
2024/03/29 06:22:13;;;;;;;0.30;0.20;;;11.20;99.90;;;;;;5083948;28;20576;-72
2024/03/29 06:24:40;;;;;;;0.30;0.20;;;11.30;99.90;;;;;;5084358;28;20184;-72
2024/03/29 06:27:05;;;;;;;0.30;0.20;;;11.40;99.90;;;;;;5083038;28;20425;-72
2024/03/29 06:29:31;;;;;;;0.30;0.20;;;11.40;99.90;;;;;;5085729;28;20179;-73
2024/03/29 06:31:57;;;;;;;0.30;0.20;;;11.50;99.90;;;;;;5084034;28;20184;-72
2024/03/29 06:34:23;;;;;;;0.30;0.20;;;11.60;99.90;;;;;;5084960;28;20398;-74
2024/03/29 06:36:48;;;;;;;0.30;0.20;;;11.70;99.90;;;;;;5084863;28;20694;-72
2024/03/29 06:39:14;;;;;;;0.30;0.20;;;11.80;99.90;;;;;;5085437;28;20202;-73
2024/03/29 06:41:39;;;;;;;0.60;0.60;;;11.80;99.90;;;;;;5082833;28;20257;-72
2024/03/29 06:44:05;;;;;;;0.30;0.20;;;11.90;99.90;;;;;;5082117;28;20325;-72
2024/03/29 06:46:34;;;;;;;0.30;0.20;;;12.00;99.90;;;;;;5083169;28;20410;-72
2024/03/29 06:48:59;;;;;;;0.30;0.20;;;12.10;99.90;;;;;;5081225;28;20600;-72
2024/03/29 06:51:25;;;;;;;0.30;0.20;;;12.20;99.90;;;;;;5082088;28;20413;-73
2024/03/29 06:53:51;;;;;;;0.30;0.20;;;12.30;99.90;;;;;;5081974;28;20240;-74
2024/03/29 06:56:17;;;;;;;0.30;0.20;;;12.40;99.90;;;;;;5083892;28;20594;-73
2024/03/29 06:58:43;;;;;;;0.30;0.20;;;12.60;99.90;;;;;;5083547;28;20459;-73
2024/03/29 07:01:08;;;;;;;0.87;0.87;;;12.60;99.90;;;;;;5085130;28;20176;-74
2024/03/29 07:03:34;;;;;;;0.30;0.20;;;12.70;99.90;;;;;;5085365;28;20197;-73
2024/03/29 07:06:00;;;;;;;0.30;0.20;;;12.80;99.90;;;;;;5085234;28;20168;-74
2024/03/29 07:08:25;;;;;;;0.30;0.20;;;13.00;99.90;;;;;;5086451;28;20781;-73
2024/03/29 07:11:01;;;;;;;0.30;0.20;;;13.10;99.90;;;;;;5088896;28;20165;-74
2024/03/29 07:13:32;;;;;;;0.93;0.93;;;13.20;99.90;;;;;;5088530;28;20228;-74
2024/03/29 07:16:01;;;;;;;0.30;0.20;;;13.30;99.90;;;;;;5087138;28;20468;-73
2024/03/29 07:18:27;;;;;;;0.30;0.20;;;13.40;99.90;;;;;;5088382;28;20420;-74
2024/03/29 07:20:53;;;;;;;0.30;0.20;;;13.50;99.90;;;;;;5088878;28;20809;-74
2024/03/29 07:23:20;;;;;;;0.30;0.20;;;13.50;99.90;;;;;;5088072;28;20452;-74
2024/03/29 07:25:57;;;;;;;0.30;0.20;;;13.60;99.90;;;;;;5087082;28;20903;-73
2024/03/29 07:28:23;;;;;;;0.30;0.20;;;13.70;99.90;;;;;;5088329;28;20417;-72
2024/03/29 07:30:50;;;;;;;0.30;0.20;;;13.70;99.90;;;;;;5088806;28;20546;-74
2024/03/29 07:33:15;;;;;;;0.40;0.30;;;13.70;99.90;;;;;;5086984;28;20196;-72
2024/03/29 07:35:42;;;;;;;0.30;0.30;;;13.70;99.90;;;;;;5088317;28;20471;-73
2024/03/29 07:38:08;;;;;;;0.30;0.20;;;13.70;99.90;;;;;;5088016;28;20713;-72
2024/03/29 07:40:34;;;;;;;0.30;0.20;;;13.80;99.90;;;;;;5088413;28;20504;-72
2024/03/29 07:43:00;;;;;;;0.30;0.20;;;13.90;99.90;;;;;;5086368;28;20432;-72
2024/03/29 07:45:26;;;;;;;0.30;0.20;;;14.00;99.90;;;;;;5087560;28;20512;-72
2024/03/29 07:47:53;;;;;;;0.30;0.20;;;14.10;99.90;;;;;;5085532;28;20464;-74
2024/03/29 07:50:19;;;;;;;0.30;0.20;;;14.30;99.90;;;;;;5086304;28;20969;-72
2024/03/29 07:52:45;;;;;;;0.30;0.20;;;14.40;99.90;;;;;;5086556;28;20428;-74
2024/03/29 07:55:11;;;;;;;0.30;0.20;;;14.50;99.90;;;;;;5086070;28;20496;-73
2024/03/29 07:57:36;;;;;;;0.30;0.20;;;14.50;99.90;;;;;;5086365;28;20441;-73
2024/03/29 08:00:03;;;;;;;0.30;0.20;;;14.60;99.90;;;;;;5087777;28;20176;-72
2024/03/29 08:02:28;;;;;;;0.30;0.20;;;14.70;99.90;;;;;;5087578;28;20215;-74
2024/03/29 08:04:54;;;;;;;0.40;0.20;;;14.80;99.90;;;;;;5087840;28;20922;-72
2024/03/29 08:07:19;;;;;;;0.30;0.30;;;14.80;99.90;;;;;;5085953;28;20266;-72
2024/03/29 08:09:45;;;;;;;0.30;0.20;;;14.90;99.90;;;;;;5087920;28;20172;-73
2024/03/29 08:12:10;;;;;;;0.30;0.20;;;14.90;99.90;;;;;;5087145;28;20176;-74
2024/03/29 08:14:36;;;;;;;0.30;0.20;;;15.10;99.90;;;;;;5087728;28;20204;-74
2024/03/29 08:17:04;;;;;;;0.30;0.20;;;15.20;99.90;;;;;;5087260;28;20180;-74
2024/03/29 08:19:30;;;;;;;0.30;0.20;;;15.30;99.90;;;;;;5087449;28;20216;-72
2024/03/29 08:21:56;;;;;;;0.30;0.20;;;15.30;99.90;;;;;;5085926;28;20445;-74
2024/03/29 08:24:21;;;;;;;0.30;0.30;;;15.50;99.90;;;;;;5087647;28;20593;-73
2024/03/29 08:26:47;;;;;;;0.30;0.20;;;15.60;99.90;;;;;;5086859;28;20180;-74
2024/03/29 08:29:13;;;;;;;0.30;0.20;;;15.70;99.90;;;;;;5087512;28;20195;-73
2024/03/29 08:31:38;;;;;;;0.30;0.20;;;15.90;99.90;;;;;;5085764;28;20426;-74
2024/03/29 08:34:06;;;;;;;0.30;0.20;;;16.20;99.90;;;;;;5087210;28;20680;-74
2024/03/29 08:36:32;;;;;;;0.50;0.47;;;16.70;99.90;;;;;;5086196;28;20678;-71
2024/03/29 08:38:58;;;;;;;0.40;0.20;;;17.60;99.90;;;;;;5087510;28;20910;-75
2024/03/29 08:41:23;;;;;;;0.40;0.20;;;18.60;99.90;;;;;;5087048;28;20442;-74
2024/03/29 08:43:49;;;;;;;0.40;0.20;;;19.60;99.90;;;;;;5085181;28;20478;-73
2024/03/29 08:46:15;;;;;;;0.40;0.20;;;20.30;99.90;;;;;;5085631;28;20179;-75
2024/03/29 08:48:43;;;;;;;0.30;0.20;;;20.70;99.90;;;;;;5086640;28;20527;-74
2024/03/29 08:51:09;;;;;;;0.30;0.20;;;20.90;99.90;;;;;;5084729;28;20177;-74
2024/03/29 08:53:34;;;;;;;0.30;0.20;;;21.30;99.40;;;;;;5086696;28;20788;-75
2024/03/29 08:56:00;;;;;;;0.30;0.20;;;21.80;97.70;;;;;;5086359;28;20490;-72
2024/03/29 08:58:26;;;;;;;0.30;0.20;;;21.90;94.60;;;;;;5086523;28;20192;-73
2024/03/29 09:00:55;;;;;;;0.30;0.20;;;21.60;94.30;;;;;;5085201;28;20609;-73
2024/03/29 09:03:22;;;;;;;0.30;0.20;;;21.40;95.60;;;;;;5086294;28;20192;-74
2024/03/29 09:05:49;;;;;;;0.30;0.20;;;21.30;96.20;;;;;;5085181;28;20417;-74
2024/03/29 09:08:15;;;;;;;0.30;0.20;;;21.40;95.10;;;;;;5086182;28;20437;-73
2024/03/29 09:10:41;;;;;;;0.30;0.20;;;21.60;94.80;;;;;;5086805;28;20528;-73
2024/03/29 09:13:09;;;;;;;0.30;0.20;;;21.80;95.60;;;;;;5086636;28;20868;-73
2024/03/29 09:15:35;;;;;;;0.30;0.20;;;22.20;94.30;;;;;;5085925;28;20474;-75
2024/03/29 09:18:09;;;;;;;0.30;0.20;;;22.20;93.50;;;;;;5086123;28;20535;-75
2024/03/29 09:20:38;;;;;;;0.40;0.20;;;22.40;93.30;;;;;;5086399;28;20515;-74
2024/03/29 09:23:04;;;;;;;0.30;0.20;;;22.60;92.80;;;;;;5085982;28;20456;-73
2024/03/29 09:25:30;;;;;;;0.30;0.20;;;22.50;92.40;;;;;;5084715;28;20442;-74
2024/03/29 09:27:55;;;;;;;0.30;0.20;;;22.60;92.60;;;;;;5085958;28;20422;-74
2024/03/29 09:30:22;;;;;;;0.30;0.20;;;22.70;92.70;;;;;;5085496;28;20183;-73
2024/03/29 09:32:49;;;;;;;0.30;0.20;;;22.70;92.60;;;;;;5084519;28;20195;-73
2024/03/29 09:35:17;;;;;;;0.30;0.20;;;22.50;93.20;;;;;;5084490;28;21023;-73
2024/03/29 09:37:42;;;;;;;0.30;0.20;;;22.50;94.10;;;;;;5085423;28;20425;-73
2024/03/29 09:40:10;;;;;;;0.30;0.20;;;22.50;93.10;;;;;;5086186;28;20467;-73
2024/03/29 09:42:36;;;;;;;0.30;0.20;;;22.40;93.60;;;;;;5085686;28;20676;-73
2024/03/29 09:45:05;;;;;;;0.30;0.20;;;22.10;93.30;;;;;;5086035;28;20411;-74
2024/03/29 09:47:32;;;;;;;0.30;0.20;;;21.90;93.80;;;;;;5085799;28;20952;-73
2024/03/29 09:50:07;;;;;;;0.30;0.20;;;21.70;93.40;;;;;;5084849;28;20422;-74
2024/03/29 09:52:34;;;;;;;0.30;0.30;;;21.40;94.00;;;;;;5085541;28;20941;-74
2024/03/29 09:55:02;;;;;;;0.30;0.20;;;21.30;94.60;;;;;;5084076;28;20478;-73
2024/03/29 09:57:31;;;;;;;0.30;0.20;;;21.10;95.50;;;;;;5085842;28;20533;-74
2024/03/29 09:59:57;;;;;;;0.30;0.20;;;21.00;95.40;;;;;;5084177;28;20448;-73
2024/03/29 10:02:30;;;;;;;0.30;0.20;;;20.90;96.80;;;;;;5084295;28;20429;-73
2024/03/29 10:04:57;;;;;;;0.30;0.30;;;20.80;96.00;;;;;;5085732;28;20861;-74
2024/03/29 10:07:23;;;;;;;0.30;0.20;;;20.60;96.70;;;;;;5085322;28;21027;-73
2024/03/29 10:09:50;;;;;;;0.30;0.20;;;20.50;97.90;;;;;;5070766;28;20414;-73
2024/03/29 10:12:17;;;;;;;0.30;0.20;;;20.50;98.10;;;;;;5083914;28;20508;-74
2024/03/29 10:14:54;;;;;;;0.30;0.20;;;20.50;97.80;;;;;;5077371;28;21016;-74
2024/03/29 10:17:21;;;;;;;0.30;0.20;;;20.50;97.90;;;;;;5064928;28;20397;-74
2024/03/29 10:19:47;;;;;;;0.30;0.20;;;20.50;98.40;;;;;;5064740;28;20426;-75
2024/03/29 10:22:13;;;;;;;0.30;0.20;;;20.50;98.30;;;;;;5069172;28;20418;-74
2024/03/29 10:24:39;;;;;;;0.30;0.20;;;20.50;99.60;;;;;;5075676;28;20428;-74
2024/03/29 10:27:05;;;;;;;0.30;0.20;;;20.60;99.00;;;;;;5063930;28;20421;-76
2024/03/29 10:29:31;;;;;;;0.30;0.20;;;20.60;99.30;;;;;;5064528;28;20637;-74
2024/03/29 10:31:57;;;;;;;0.30;0.20;;;20.70;99.10;;;;;;5063812;28;20497;-74
2024/03/29 10:34:25;;;;;;;0.30;0.20;;;20.70;98.50;;;;;;5064871;28;20528;-75
2024/03/29 10:36:51;;;;;;;0.30;0.20;;;20.50;98.70;;;;;;5064822;28;20572;-75
2024/03/29 10:39:17;;;;;;;0.30;0.20;;;20.40;99.20;;;;;;5076364;28;20449;-74
2024/03/29 10:41:47;;;;;;;0.30;0.20;;;20.50;99.30;;;;;;5062193;28;20483;-74
2024/03/29 10:44:14;;;;;;;1.13;0.50;;;20.60;99.90;;;;;;5064874;28;20437;-74
2024/03/29 10:46:44;;;;;;;0.40;0.40;;;20.60;99.70;;;;;;5071553;28;20421;-75
2024/03/29 10:49:11;;;;;;;0.30;0.20;;;20.60;99.90;;;;;;5067948;28;20501;-74
2024/03/29 10:51:41;;;;;;;0.30;0.20;;;20.50;99.90;;;;;;5068462;28;20927;-74
2024/03/29 10:54:11;;;;;;;1.03;1.03;;;20.60;99.90;;;;;;5068938;28;20679;-74
2024/03/29 10:56:37;;;;;;;0.30;0.20;;;20.60;99.90;;;;;;5068224;28;20488;-75
2024/03/29 10:59:30;;;;;;;0.30;0.20;;;20.50;99.90;;;;;;5068726;28;20453;-74
2024/03/29 11:02:00;;;;;;;0.60;0.60;;;20.50;99.90;;;;;;5046610;28;20409;-75
2024/03/29 11:04:33;;;;;;;0.30;0.20;;;20.60;99.90;;;;;;5066980;28;20437;-75
2024/03/29 11:07:04;;;;;;;0.30;0.20;;;20.80;99.90;;;;;;5066653;28;20394;-75
2024/03/29 11:09:33;;;;;;;0.30;0.23;;;20.90;99.90;;;;;;5066981;28;20508;-75
2024/03/29 11:12:02;;;;;;;0.30;0.20;;;21.00;99.90;;;;;;5066718;28;20405;-75
2024/03/29 11:14:40;;;;;;;0.30;0.20;;;21.10;99.90;;;;;;5066977;28;20445;-76
2024/03/29 11:17:07;;;;;;;0.30;0.20;;;21.20;99.90;;;;;;5067981;28;20396;-74
2024/03/29 11:19:33;;;;;;;0.30;0.20;;;21.30;99.90;;;;;;5066960;28;20491;-75
2024/03/29 11:21:59;;;;;;;0.30;0.20;;;21.40;99.90;;;;;;5066602;28;20738;-75
2024/03/29 11:24:28;;;;;;;0.30;0.20;;;21.40;99.90;;;;;;5068374;28;20206;-74
2024/03/29 11:26:54;;;;;;;0.30;0.20;;;21.40;99.90;;;;;;5068071;28;21036;-73
2024/03/29 11:29:21;;;;;;;0.30;0.20;;;21.40;99.90;;;;;;5068187;28;20529;-74
2024/03/29 11:31:49;;;;;;;0.30;0.20;;;21.50;99.90;;;;;;5067655;28;20459;-73
2024/03/29 11:34:19;;;;;;;0.30;0.30;;;21.60;99.90;;;;;;5066610;28;20454;-73
2024/03/29 11:36:45;;;;;;;0.30;0.20;;;21.70;99.90;;;;;;5067250;28;20421;-73
2024/03/29 11:39:21;;;;;;;0.30;0.20;;;21.80;99.90;;;;;;5066823;28;20472;-74
2024/03/29 11:41:50;;;;;;;0.30;0.20;;;22.00;99.70;;;;;;5066288;28;20789;-74
2024/03/29 11:44:16;;;;;;;0.83;0.83;;;22.10;99.70;;;;;;5066733;28;20927;-75
2024/03/29 11:46:46;;;;;;;0.67;0.67;;;22.00;99.60;;;;;;5067686;28;20403;-74
2024/03/29 11:49:13;;;;;;;0.30;0.20;;;22.00;99.60;;;;;;5068009;28;20769;-74
2024/03/29 11:51:38;;;;;;;0.30;0.20;;;22.00;99.60;;;;;;5066278;28;20424;-74
2024/03/29 11:54:04;;;;;;;0.30;0.20;;;21.90;99.20;;;;;;5065131;28;20464;-74
2024/03/29 11:56:29;;;;;;;0.30;0.20;;;22.00;99.90;;;;;;5067467;28;20766;-73
2024/03/29 11:58:59;;;;;;;0.30;0.20;;;22.10;99.50;;;;;;5067650;28;20439;-74
2024/03/29 12:01:29;;;;;;;0.30;0.20;;;22.20;98.80;;;;;;5065723;28;20177;-73
2024/03/29 12:03:55;;;;;;;0.30;0.20;;;22.30;97.60;;;;;;5065993;28;20460;-74
2024/03/29 12:06:20;;;;;;;0.30;0.20;;;22.30;97.60;;;;;;5067654;28;20481;-73
2024/03/29 12:08:46;;;;;;;0.30;0.20;;;22.30;97.80;;;;;;5080785;28;20294;-74
2024/03/29 12:11:13;;;;;;;0.30;0.20;;;22.40;98.00;;;;;;5086189;28;20180;-74
2024/03/29 12:13:40;;;;;;;1.60;1.50;;;22.50;97.40;;;;;;5083328;28;20205;-74
2024/03/29 12:16:07;;;;;;;0.30;0.20;;;22.60;97.00;;;;;;5083379;28;20471;-74
2024/03/29 12:18:33;;;;;;;0.30;0.20;;;22.80;96.80;;;;;;5066576;28;20424;-73
2024/03/29 12:20:59;;;;;;;0.30;0.20;;;22.70;96.50;;;;;;5065805;28;20420;-74
2024/03/29 12:23:25;;;;;;;0.30;0.20;;;22.70;97.10;;;;;;5065547;28;20559;-73
2024/03/29 12:25:55;;;;;;;0.30;0.20;;;22.80;96.30;;;;;;5077555;28;20789;-74
2024/03/29 12:28:21;;;;;;;0.30;0.20;;;22.80;96.40;;;;;;5083174;28;20668;-74
2024/03/29 12:30:48;;;;;;;0.30;0.20;;;22.90;96.40;;;;;;5079223;28;20913;-73
2024/03/29 12:33:20;;;;;;;1.17;0.70;;;23.00;95.90;;;;;;5086894;28;20978;-74
2024/03/29 12:35:52;;;;;;;0.30;0.20;;;23.00;95.70;;;;;;5084711;28;20554;-74
2024/03/29 12:38:19;;;;;;;0.30;0.20;;;22.90;96.30;;;;;;5086931;28;20579;-73
2024/03/29 12:40:50;;;;;;;0.30;0.20;;;22.90;95.60;;;;;;5086535;28;20415;-75
2024/03/29 12:43:22;;;;;;;0.30;0.20;;;23.00;95.80;;;;;;5086824;28;21103;-74
2024/03/29 12:45:49;;;;;;;0.93;0.93;;;23.00;96.20;;;;;;5085471;28;20454;-73
2024/03/29 12:48:20;;;;;;;0.30;0.20;;;23.10;95.70;;;;;;5086952;28;20507;-74
2024/03/29 12:50:47;;;;;;;1.07;0.97;;;23.30;95.50;;;;;;5087198;28;20433;-74
2024/03/29 12:53:14;;;;;;;0.30;0.20;;;23.40;95.40;;;;;;5085874;28;20848;-74